createdAt,value
2022-10-10T00:00:14.298Z,6.13
2022-10-10T00:01:48.919Z,6.43
2022-10-10T00:03:21.615Z,6.70
2022-10-10T00:04:54.882Z,6.15
2022-10-10T00:06:32.746Z,5.85
2022-10-10T00:08:07.206Z,6.40
2022-10-10T00:09:40.456Z,7.50
2022-10-10T00:11:15.201Z,7.72
2022-10-10T00:12:48.844Z,7.35
2022-10-10T00:14:22.590Z,6.50
2022-10-10T00:15:54.842Z,6.60
2022-10-10T00:17:29.559Z,6.78
2022-10-10T00:19:02.717Z,7.55
2022-10-10T00:20:35.005Z,7.75
2022-10-10T00:22:08.391Z,6.63
2022-10-10T00:23:40.781Z,6.38
2022-10-10T00:25:15.217Z,6.78
2022-10-10T00:26:48.911Z,6.28
2022-10-10T00:28:22.419Z,6.40
2022-10-10T00:29:55.781Z,6.05
2022-10-10T00:31:29.029Z,5.80
2022-10-10T00:33:02.627Z,5.95
2022-10-10T00:34:35.986Z,5.70
2022-10-10T00:36:09.243Z,6.22
2022-10-10T00:37:41.476Z,5.57
2022-10-10T00:39:14.843Z,6.40
2022-10-10T00:40:48.715Z,6.35
2022-10-10T00:42:21.996Z,6.22
2022-10-10T00:44:06.154Z,5.80
2022-10-10T00:45:42.133Z,6.43
2022-10-10T00:47:15.356Z,6.63
2022-10-10T00:48:49.911Z,6.40
2022-10-10T00:50:23.901Z,6.22
2022-10-10T00:52:00.513Z,5.70
2022-10-10T00:53:37.839Z,6.55
2022-10-10T00:55:12.432Z,6.85
2022-10-10T00:56:48.294Z,6.22
2022-10-10T00:58:22.961Z,6.20
2022-10-10T00:59:56.593Z,5.97
2022-10-10T01:01:29.860Z,6.00
2022-10-10T01:03:02.131Z,6.95
2022-10-10T01:04:45.040Z,5.65
2022-10-10T01:06:18.796Z,6.18
2022-10-10T01:07:52.122Z,6.72
2022-10-10T01:09:25.428Z,6.15
2022-10-10T01:11:17.488Z,7.10
2022-10-10T01:13:00.099Z,6.32
2022-10-10T01:14:40.557Z,6.57
2022-10-10T01:16:24.155Z,6.47
2022-10-10T01:18:06.965Z,7.22
2022-10-10T01:20:18.708Z,6.80
2022-10-10T01:22:03.403Z,7.53
2022-10-10T01:24:05.752Z,8.02
2022-10-10T01:25:50.784Z,6.80
2022-10-10T01:27:31.473Z,7.30
2022-10-10T01:29:13.591Z,7.03
2022-10-10T01:30:48.181Z,7.90
2022-10-10T01:32:29.660Z,7.07
2022-10-10T01:34:08.663Z,7.32
2022-10-10T01:35:52.332Z,7.32
2022-10-10T01:37:34.888Z,6.90
2022-10-10T01:39:14.708Z,7.10
2022-10-10T01:40:52.870Z,10.10
2022-10-10T01:42:33.085Z,9.70
2022-10-10T01:44:07.634Z,8.75
2022-10-10T01:45:44.411Z,7.63
2022-10-10T01:47:17.761Z,7.80
2022-10-10T01:48:54.845Z,8.77
2022-10-10T01:50:27.968Z,7.45
2022-10-10T01:52:14.727Z,7.95
2022-10-10T01:53:56.036Z,8.80
2022-10-10T01:55:37.226Z,8.32
2022-10-10T01:57:21.869Z,8.98
2022-10-10T01:59:17.274Z,8.40
2022-10-10T02:00:56.229Z,8.35
2022-10-10T02:02:40.791Z,8.18
2022-10-10T02:04:23.004Z,8.73
2022-10-10T02:06:01.273Z,8.77
2022-10-10T02:07:40.789Z,8.23
2022-10-10T02:09:18.733Z,8.32
2022-10-10T02:10:56.928Z,7.05
2022-10-10T02:12:32.759Z,7.55
2022-10-10T02:14:10.633Z,6.65
2022-10-10T02:15:50.935Z,7.65
2022-10-10T02:17:27.541Z,7.07
2022-10-10T02:19:01.620Z,7.57
2022-10-10T02:20:35.259Z,6.15
2022-10-10T02:22:08.801Z,6.65
2022-10-10T02:23:43.982Z,7.05
2022-10-10T02:25:16.977Z,7.35
2022-10-10T02:26:59.422Z,6.97
2022-10-10T02:28:39.521Z,7.13
2022-10-10T02:30:14.623Z,6.53
2022-10-10T02:31:55.863Z,7.32
2022-10-10T02:33:32.788Z,6.75
2022-10-10T02:35:09.785Z,6.85
2022-10-10T02:36:47.879Z,8.20
2022-10-10T02:38:21.874Z,7.20
2022-10-10T02:39:59.378Z,7.20
2022-10-10T02:41:34.862Z,7.35
2022-10-10T02:43:09.383Z,6.82
2022-10-10T02:44:42.573Z,6.25
2022-10-10T02:46:16.299Z,7.70
2022-10-10T02:47:52.284Z,6.85
2022-10-10T02:49:28.063Z,7.90
2022-10-10T02:51:01.307Z,7.20
2022-10-10T02:52:34.579Z,7.07
2022-10-10T02:54:08.129Z,7.00
2022-10-10T02:55:41.405Z,7.45
2022-10-10T02:57:13.770Z,6.97
2022-10-10T02:58:46.930Z,7.68
2022-10-10T03:00:20.820Z,7.75
2022-10-10T03:01:55.427Z,8.00
2022-10-10T03:03:30.008Z,7.53
2022-10-10T03:05:02.164Z,7.93
2022-10-10T03:06:36.786Z,7.50
2022-10-10T03:08:11.816Z,8.43
2022-10-10T03:09:45.161Z,7.50
2022-10-10T03:11:18.359Z,8.00
2022-10-10T03:12:52.092Z,7.50
2022-10-10T03:14:24.607Z,7.63
2022-10-10T03:15:57.857Z,7.10
2022-10-10T03:17:31.051Z,7.38
2022-10-10T03:19:08.403Z,6.55
2022-10-10T03:20:41.728Z,7.47
2022-10-10T03:22:14.894Z,7.00
2022-10-10T03:23:48.022Z,7.57
2022-10-10T03:25:21.266Z,7.10
2022-10-10T03:26:54.111Z,7.63
2022-10-10T03:28:27.266Z,7.28
2022-10-10T03:29:59.521Z,9.32
2022-10-10T03:31:33.653Z,9.82
2022-10-10T03:33:06.755Z,7.80
2022-10-10T03:34:41.298Z,8.50
2022-10-10T03:36:14.511Z,8.00
2022-10-10T03:37:47.847Z,7.53
2022-10-10T03:39:20.190Z,7.72
2022-10-10T03:40:53.341Z,8.10
2022-10-10T03:42:26.565Z,7.00
2022-10-10T03:43:59.914Z,8.32
2022-10-10T03:45:33.120Z,8.43
2022-10-10T03:47:06.455Z,7.80
2022-10-10T03:48:38.571Z,8.07
2022-10-10T03:50:13.512Z,7.75
2022-10-10T03:51:46.799Z,8.23
2022-10-10T03:53:20.029Z,8.73
2022-10-10T03:54:53.137Z,9.55
2022-10-10T03:56:25.406Z,8.80
2022-10-10T03:57:58.940Z,10.02
2022-10-10T03:59:32.055Z,8.45
2022-10-10T04:01:05.736Z,8.85
2022-10-10T04:02:38.951Z,8.57
2022-10-10T04:04:12.210Z,9.30
2022-10-10T04:05:45.719Z,8.20
2022-10-10T04:07:18.820Z,9.27
2022-10-10T04:08:52.291Z,9.82
2022-10-10T04:10:25.672Z,12.02
2022-10-10T04:11:59.700Z,11.02
2022-10-10T04:13:32.871Z,10.93
2022-10-10T04:15:06.058Z,13.35
2022-10-10T04:16:39.312Z,12.55
2022-10-10T04:18:12.668Z,11.95
2022-10-10T04:19:45.783Z,13.20
2022-10-10T04:21:20.664Z,12.77
2022-10-10T04:22:54.292Z,12.55
2022-10-10T04:24:27.690Z,13.20
2022-10-10T04:26:00.974Z,13.07
2022-10-10T04:27:34.472Z,12.02
2022-10-10T04:29:07.835Z,12.30
2022-10-10T04:30:41.615Z,11.10
2022-10-10T04:32:13.908Z,11.40
2022-10-10T04:33:47.227Z,13.07
2022-10-10T04:35:19.674Z,9.82
2022-10-10T04:36:54.193Z,11.38
2022-10-10T04:38:27.535Z,9.85
2022-10-10T04:40:00.776Z,9.60
2022-10-10T04:41:34.417Z,9.27
2022-10-10T04:43:07.561Z,8.48
2022-10-10T04:44:40.756Z,9.02
2022-10-10T04:46:13.350Z,8.30
2022-10-10T04:47:46.693Z,7.68
2022-10-10T04:49:18.889Z,8.18
2022-10-10T04:50:55.823Z,8.50
2022-10-10T04:52:30.678Z,8.50
2022-10-10T04:54:03.934Z,7.78
2022-10-10T04:55:37.165Z,8.32
2022-10-10T04:57:10.401Z,8.48
2022-10-10T04:58:43.632Z,7.15
2022-10-10T05:00:17.157Z,8.02
2022-10-10T05:01:50.278Z,9.10
2022-10-10T05:03:24.535Z,7.75
2022-10-10T05:04:56.877Z,7.95
2022-10-10T05:06:30.224Z,8.27
2022-10-10T05:08:04.964Z,7.95
2022-10-10T05:09:37.124Z,7.95
2022-10-10T05:11:10.548Z,7.60
2022-10-10T05:12:43.873Z,9.13
2022-10-10T05:14:17.036Z,9.63
2022-10-10T05:15:52.786Z,14.40
2022-10-10T05:17:26.248Z,14.10
2022-10-10T05:18:59.802Z,12.90
2022-10-10T05:20:34.051Z,13.48
2022-10-10T05:22:07.300Z,12.68
2022-10-10T05:23:42.472Z,13.90
2022-10-10T05:25:15.844Z,12.25
2022-10-10T05:26:49.027Z,10.18
2022-10-10T05:28:22.436Z,10.20
2022-10-10T05:29:55.958Z,10.95
2022-10-10T05:31:30.369Z,10.68
2022-10-10T05:33:03.753Z,9.77
2022-10-10T05:34:36.940Z,11.15
2022-10-10T05:36:13.217Z,12.15
2022-10-10T05:37:46.674Z,9.48
2022-10-10T05:39:21.311Z,9.45
2022-10-10T05:40:56.701Z,9.73
2022-10-10T05:42:30.089Z,9.88
2022-10-10T05:44:03.317Z,9.88
2022-10-10T05:45:36.554Z,8.85
2022-10-10T05:47:09.788Z,9.95
2022-10-10T05:48:43.455Z,9.77
2022-10-10T05:50:28.935Z,8.95
2022-10-10T05:52:02.180Z,12.00
2022-10-10T05:53:35.323Z,12.27
2022-10-10T05:55:10.580Z,13.48
2022-10-10T05:56:44.227Z,15.68
2022-10-10T05:58:17.599Z,16.65
2022-10-10T05:59:50.799Z,14.88
2022-10-10T06:01:24.119Z,12.95
2022-10-10T06:02:58.680Z,12.57
2022-10-10T06:04:32.274Z,10.57
2022-10-10T06:06:07.147Z,10.48
2022-10-10T06:08:04.303Z,9.63
2022-10-10T06:09:34.131Z,8.93
2022-10-10T06:11:09.199Z,9.40
2022-10-10T06:12:42.538Z,8.18
2022-10-10T06:14:15.703Z,8.32
2022-10-10T06:15:52.378Z,8.27
2022-10-10T06:17:25.528Z,8.95
2022-10-10T06:18:58.892Z,9.02
2022-10-10T06:20:32.058Z,9.38
2022-10-10T06:22:05.596Z,9.23
2022-10-10T06:23:38.852Z,9.02
2022-10-10T06:25:29.104Z,10.07
2022-10-10T06:27:07.148Z,10.63
2022-10-10T06:28:40.684Z,9.02
2022-10-10T06:30:14.597Z,11.02
2022-10-10T06:31:47.822Z,10.27
2022-10-10T06:33:21.463Z,10.50
2022-10-10T06:34:54.679Z,9.90
2022-10-10T06:36:27.926Z,10.55
2022-10-10T06:38:01.118Z,11.50
2022-10-10T06:39:34.365Z,11.93
2022-10-10T06:41:08.315Z,11.00
2022-10-10T06:42:42.990Z,10.88
2022-10-10T06:44:17.907Z,11.20
2022-10-10T06:45:52.079Z,10.85
2022-10-10T06:47:25.356Z,11.85
2022-10-10T06:48:58.823Z,11.45
2022-10-10T06:50:32.169Z,10.80
2022-10-10T06:52:05.319Z,10.35
2022-10-10T06:53:38.462Z,11.32
2022-10-10T06:55:11.851Z,11.48
2022-10-10T06:56:45.099Z,11.13
2022-10-10T06:58:19.756Z,13.15
2022-10-10T06:59:52.892Z,11.43
2022-10-10T07:01:27.304Z,10.88
2022-10-10T07:03:00.501Z,11.18
2022-10-10T07:04:33.675Z,10.63
2022-10-10T07:06:10.565Z,10.60
2022-10-10T07:07:44.513Z,9.40
2022-10-10T07:09:18.902Z,11.07
2022-10-10T07:10:52.662Z,10.82
2022-10-10T07:12:29.091Z,11.27
2022-10-10T07:14:04.908Z,9.05
2022-10-10T07:15:38.139Z,8.88
2022-10-10T07:17:11.393Z,9.05
2022-10-10T07:18:44.535Z,10.02
2022-10-10T07:20:17.930Z,11.48
2022-10-10T07:21:51.086Z,11.18
2022-10-10T07:23:24.571Z,10.88
2022-10-10T07:24:57.762Z,10.93
2022-10-10T07:26:37.003Z,10.70
2022-10-10T07:28:11.195Z,12.57
2022-10-10T07:29:46.153Z,13.63
2022-10-10T07:31:19.383Z,13.20
2022-10-10T07:32:54.394Z,10.40
2022-10-10T07:34:27.802Z,10.40
2022-10-10T07:36:01.163Z,9.30
2022-10-10T07:37:34.450Z,9.48
2022-10-10T07:39:07.908Z,10.27
2022-10-10T07:40:41.906Z,9.88
2022-10-10T07:42:15.276Z,8.95
2022-10-10T07:43:48.491Z,9.25
2022-10-10T07:45:23.358Z,8.77
2022-10-10T07:46:56.500Z,8.45
2022-10-10T07:48:29.628Z,8.13
2022-10-10T07:50:02.876Z,8.20
2022-10-10T07:51:36.628Z,8.13
2022-10-10T07:53:09.901Z,8.20
2022-10-10T07:54:43.486Z,8.10
2022-10-10T07:56:16.732Z,7.95
2022-10-10T07:57:53.393Z,7.60
2022-10-10T07:59:27.031Z,7.40
2022-10-10T08:01:06.042Z,7.15
2022-10-10T08:02:39.258Z,7.30
2022-10-10T08:04:12.680Z,7.43
2022-10-10T08:05:47.066Z,7.22
2022-10-10T08:07:20.592Z,7.32
2022-10-10T08:08:53.814Z,7.35
2022-10-10T08:10:28.727Z,7.60
2022-10-10T08:12:02.098Z,7.45
2022-10-10T08:13:36.194Z,8.32
2022-10-10T08:16:50.328Z,6.82
2022-10-10T08:18:23.648Z,6.60
2022-10-10T08:19:57.028Z,6.65
2022-10-10T08:21:30.253Z,6.90
2022-10-10T08:23:03.520Z,7.25
2022-10-10T08:24:36.692Z,6.43
2022-10-10T08:26:12.202Z,6.85
2022-10-10T08:27:45.374Z,6.28
2022-10-10T08:29:18.747Z,7.35
2022-10-10T08:30:52.175Z,6.63
2022-10-10T08:32:26.973Z,6.60
2022-10-10T08:34:00.151Z,6.88
2022-10-10T08:35:33.683Z,6.28
2022-10-10T08:37:06.931Z,6.40
2022-10-10T08:38:40.051Z,6.20
2022-10-10T08:40:16.324Z,7.25
2022-10-10T08:41:52.403Z,6.53
2022-10-10T08:43:34.284Z,6.47
2022-10-10T08:45:14.185Z,6.45
2022-10-10T08:46:51.478Z,6.88
2022-10-10T08:48:30.261Z,6.70
2022-10-10T08:50:07.044Z,6.85
2022-10-10T08:51:43.856Z,6.43
2022-10-10T08:53:25.071Z,6.20
2022-10-10T08:55:01.660Z,6.38
2022-10-10T08:56:36.190Z,6.03
2022-10-10T08:58:18.008Z,6.53
2022-10-10T09:01:32.691Z,6.07
2022-10-10T09:03:14.221Z,6.75
2022-10-10T09:04:48.922Z,7.05
2022-10-10T09:06:34.123Z,6.47
2022-10-10T09:08:23.267Z,6.95
2022-10-10T09:10:07.719Z,7.95
2022-10-10T09:11:52.936Z,6.90
2022-10-10T09:13:34.495Z,9.05
2022-10-10T09:15:16.091Z,10.75
2022-10-10T09:16:56.320Z,8.25
2022-10-10T09:18:46.913Z,5.82
2022-10-10T09:20:38.089Z,5.95
2022-10-10T09:22:15.911Z,6.00
2022-10-10T09:23:52.432Z,7.43
2022-10-10T09:25:31.013Z,7.05
2022-10-10T09:27:06.620Z,5.85
2022-10-10T09:28:44.524Z,7.03
2022-10-10T09:30:21.067Z,5.97
2022-10-10T09:31:59.796Z,6.50
2022-10-10T09:33:37.573Z,6.15
2022-10-10T09:35:17.776Z,6.40
2022-10-10T09:36:56.075Z,6.53
2022-10-10T09:38:38.137Z,6.53
2022-10-10T09:40:18.821Z,5.13
2022-10-10T09:41:58.854Z,6.85
2022-10-10T09:43:34.962Z,5.45
2022-10-10T09:45:17.566Z,6.25
2022-10-10T09:46:50.993Z,6.95
2022-10-10T09:48:30.341Z,7.03
2022-10-10T09:51:42.689Z,6.93
2022-10-10T09:53:17.924Z,6.65
2022-10-10T09:54:52.475Z,6.35
2022-10-10T09:56:28.208Z,6.90
2022-10-10T09:58:05.835Z,7.00
2022-10-10T09:59:42.150Z,6.30
2022-10-10T10:01:18.889Z,6.45
2022-10-10T10:03:04.856Z,6.82
2022-10-10T10:04:38.433Z,5.93
2022-10-10T10:06:15.143Z,6.30
2022-10-10T10:07:48.933Z,5.97
2022-10-10T10:09:24.444Z,6.40
2022-10-10T10:11:01.731Z,5.93
2022-10-10T10:12:41.373Z,6.53
2022-10-10T10:14:29.272Z,6.85
2022-10-10T10:16:05.714Z,6.55
2022-10-10T10:17:38.897Z,5.95
2022-10-10T10:19:32.144Z,5.55
2022-10-10T10:21:20.505Z,6.80
2022-10-10T10:22:53.736Z,5.63
2022-10-10T10:24:36.392Z,5.18
2022-10-10T10:26:17.660Z,5.93
2022-10-10T10:27:50.928Z,6.85
2022-10-10T10:29:32.511Z,6.18
2022-10-10T10:31:06.303Z,6.38
2022-10-10T10:32:48.330Z,6.07
2022-10-10T10:34:40.843Z,6.10
2022-10-10T10:36:28.236Z,6.45
2022-10-10T10:38:20.137Z,6.13
2022-10-10T10:40:18.764Z,6.03
2022-10-10T10:41:57.819Z,5.65
2022-10-10T10:43:49.500Z,5.78
2022-10-10T10:45:33.486Z,6.30
2022-10-10T10:47:20.195Z,5.70
2022-10-10T10:49:02.205Z,6.40
2022-10-10T10:50:46.249Z,6.00
2022-10-10T10:52:40.348Z,5.82
2022-10-10T10:54:31.538Z,5.97
2022-10-10T10:56:18.179Z,5.65
2022-10-10T10:58:54.997Z,5.70
2022-10-10T11:00:22.181Z,5.40
2022-10-10T11:02:43.698Z,5.75
2022-10-10T11:05:19.017Z,5.82
2022-10-10T11:07:17.869Z,6.18
2022-10-10T11:09:03.092Z,5.43
2022-10-10T11:10:42.437Z,5.82
2022-10-10T11:12:38.736Z,6.25
2022-10-10T11:14:26.719Z,6.15
2022-10-10T11:16:10.040Z,5.63
2022-10-10T11:17:58.143Z,5.78
2022-10-10T11:19:35.777Z,5.40
2022-10-10T11:21:15.845Z,6.25
2022-10-10T11:22:53.609Z,5.25
2022-10-10T11:24:38.600Z,5.60
2022-10-10T11:26:19.824Z,5.63
2022-10-10T11:28:00.308Z,5.63
2022-10-10T11:29:40.156Z,5.45
2022-10-10T11:31:22.295Z,5.55
2022-10-10T11:33:00.308Z,5.32
2022-10-10T11:34:39.766Z,6.00
2022-10-10T11:36:17.329Z,5.00
2022-10-10T11:37:58.866Z,6.10
2022-10-10T11:39:40.160Z,5.15
2022-10-10T11:41:17.350Z,5.85
2022-10-10T11:42:57.955Z,5.00
2022-10-10T11:44:37.844Z,5.45
2022-10-10T11:46:22.818Z,4.38
2022-10-10T11:48:01.881Z,5.50
2022-10-10T11:49:45.110Z,5.70
2022-10-10T11:51:37.376Z,5.65
2022-10-10T11:53:20.359Z,5.75
2022-10-10T11:55:00.579Z,5.22
2022-10-10T11:56:39.217Z,5.70
2022-10-10T11:58:29.140Z,5.60
2022-10-10T12:00:07.696Z,6.72
2022-10-10T12:01:47.819Z,6.13
2022-10-10T12:03:21.600Z,5.47
2022-10-10T12:04:55.057Z,5.63
2022-10-10T12:06:34.796Z,5.60
2022-10-10T12:08:18.064Z,5.97
2022-10-10T12:09:55.624Z,5.85
2022-10-10T12:11:33.818Z,5.45
2022-10-10T12:13:23.843Z,5.43
2022-10-10T12:15:03.221Z,5.15
2022-10-10T12:16:38.900Z,5.20
2022-10-10T12:18:25.656Z,5.53
2022-10-10T12:20:11.439Z,5.55
2022-10-10T12:22:05.075Z,6.78
2022-10-10T12:23:41.278Z,5.82
2022-10-10T12:25:26.012Z,5.88
2022-10-10T12:27:28.186Z,6.28
2022-10-10T12:29:05.553Z,5.60
2022-10-10T12:31:18.943Z,5.90
2022-10-10T12:32:54.344Z,6.53
2022-10-10T12:34:45.091Z,5.72
2022-10-10T12:36:55.900Z,5.65
2022-10-10T12:38:29.502Z,5.18
2022-10-10T12:40:29.938Z,6.47
2022-10-10T12:42:03.748Z,6.45
2022-10-10T12:43:51.046Z,5.65
2022-10-10T12:46:09.907Z,5.53
2022-10-10T12:48:04.474Z,5.55
2022-10-10T12:49:39.830Z,4.82
2022-10-10T12:51:21.895Z,5.07
2022-10-10T12:52:59.030Z,6.38
2022-10-10T12:54:38.898Z,5.60
2022-10-10T12:56:14.027Z,4.88
2022-10-10T12:57:49.771Z,5.55
2022-10-10T12:59:25.592Z,5.60
2022-10-10T13:01:03.510Z,5.32
2022-10-10T13:02:37.199Z,5.30
2022-10-10T13:04:10.642Z,6.07
2022-10-10T13:05:45.016Z,5.63
2022-10-10T13:07:22.130Z,6.30
2022-10-10T13:08:57.059Z,6.35
2022-10-10T13:10:31.810Z,5.82
2022-10-10T13:12:07.424Z,5.75
2022-10-10T13:13:41.531Z,6.38
2022-10-10T13:15:24.173Z,6.32
2022-10-10T13:16:59.024Z,5.57
2022-10-10T13:18:36.891Z,5.20
2022-10-10T13:20:29.142Z,5.93
2022-10-10T13:22:02.576Z,5.63
2022-10-10T13:23:37.453Z,5.95
2022-10-10T13:25:12.399Z,5.65
2022-10-10T13:26:48.312Z,5.63
2022-10-10T13:28:23.326Z,5.72
2022-10-10T13:29:57.191Z,5.90
2022-10-10T13:31:32.175Z,5.95
2022-10-10T13:33:15.860Z,6.50
2022-10-10T13:34:57.107Z,6.80
2022-10-10T13:36:32.273Z,7.05
2022-10-10T13:38:06.963Z,5.53
2022-10-10T13:39:40.764Z,7.03
2022-10-10T13:41:15.254Z,5.38
2022-10-10T13:42:49.552Z,6.10
2022-10-10T13:44:24.704Z,6.13
2022-10-10T13:46:00.491Z,5.63
2022-10-10T13:47:53.186Z,6.13
2022-10-10T13:49:29.506Z,6.07
2022-10-10T13:51:06.404Z,6.68
2022-10-10T13:52:39.943Z,6.15
2022-10-10T13:54:43.081Z,6.25
2022-10-10T13:56:19.241Z,6.15
2022-10-10T13:57:57.111Z,6.07
2022-10-10T13:59:34.133Z,6.07
2022-10-10T14:01:07.835Z,6.20
2022-10-10T14:02:44.570Z,5.50
2022-10-10T14:04:25.294Z,5.75
2022-10-10T14:06:00.493Z,6.20
2022-10-10T14:07:33.925Z,6.45
2022-10-10T14:09:16.997Z,6.97
2022-10-10T14:10:58.498Z,6.40
2022-10-10T14:12:34.894Z,5.93
2022-10-10T14:14:15.913Z,5.70
2022-10-10T14:15:49.843Z,5.65
2022-10-10T14:17:23.091Z,5.75
2022-10-10T14:18:56.673Z,6.07
2022-10-10T14:20:30.019Z,6.38
2022-10-10T14:22:04.645Z,6.10
2022-10-10T14:23:40.799Z,6.18
2022-10-10T14:25:14.028Z,5.85
2022-10-10T14:26:47.487Z,5.90
2022-10-10T14:28:22.870Z,6.10
2022-10-10T14:29:58.518Z,5.78
2022-10-10T14:31:31.833Z,6.65
2022-10-10T14:33:12.142Z,6.07
2022-10-10T14:34:45.652Z,5.85
2022-10-10T14:36:18.978Z,6.65
2022-10-10T14:37:53.709Z,5.93
2022-10-10T14:39:26.922Z,6.35
2022-10-10T14:41:01.894Z,6.07
2022-10-10T14:42:35.337Z,6.00
2022-10-10T14:44:08.862Z,5.30
2022-10-10T14:45:41.995Z,5.95
2022-10-10T14:47:17.524Z,6.30
2022-10-10T14:48:50.811Z,7.50
2022-10-10T14:50:27.137Z,7.30
2022-10-10T14:52:01.502Z,5.00
2022-10-10T14:53:36.573Z,5.47
2022-10-10T14:55:11.326Z,6.72
2022-10-10T14:57:09.459Z,6.47
2022-10-10T14:58:39.593Z,6.97
2022-10-10T15:00:16.219Z,6.63
2022-10-10T15:01:50.032Z,6.15
2022-10-10T15:03:23.352Z,5.72
2022-10-10T15:04:56.599Z,5.80
2022-10-10T15:06:29.708Z,5.82
2022-10-10T15:08:03.054Z,6.28
2022-10-10T15:09:47.473Z,6.25
2022-10-10T15:11:30.219Z,6.15
2022-10-10T15:13:04.658Z,6.82
2022-10-10T15:14:37.897Z,7.43
2022-10-10T15:16:11.097Z,6.35
2022-10-10T15:17:44.287Z,6.30
2022-10-10T15:19:16.786Z,6.65
2022-10-10T15:20:49.941Z,6.35
2022-10-10T15:22:23.116Z,6.18
2022-10-10T15:23:56.787Z,4.95
2022-10-10T15:25:33.922Z,5.82
2022-10-10T15:27:07.413Z,5.85
2022-10-10T15:28:40.648Z,6.22
2022-10-10T15:30:14.553Z,6.72
2022-10-10T15:31:47.981Z,7.18
2022-10-10T15:33:21.310Z,7.32
2022-10-10T15:34:54.577Z,10.50
2022-10-10T15:36:28.201Z,9.35
2022-10-10T15:38:02.527Z,8.73
2022-10-10T15:39:38.445Z,9.30
2022-10-10T15:41:13.102Z,9.23
2022-10-10T15:42:46.762Z,8.60
2022-10-10T15:44:20.159Z,9.35
2022-10-10T15:45:56.171Z,9.98
2022-10-10T15:47:29.584Z,11.68
2022-10-10T15:49:03.496Z,9.45
2022-10-10T15:50:39.504Z,9.50
2022-10-10T15:52:12.645Z,8.73
2022-10-10T15:53:46.118Z,7.65
2022-10-10T15:55:19.573Z,11.68
2022-10-10T15:56:54.385Z,11.10
2022-10-10T15:58:27.598Z,10.35
2022-10-10T16:00:00.804Z,10.45
2022-10-10T16:01:34.173Z,9.15
2022-10-10T16:03:07.839Z,8.25
2022-10-10T16:04:41.079Z,9.07
2022-10-10T16:06:15.422Z,9.43
2022-10-10T16:07:49.042Z,8.52
2022-10-10T16:09:28.508Z,7.03
2022-10-10T16:11:06.685Z,6.88
2022-10-10T16:12:41.427Z,8.70
2022-10-10T16:14:14.916Z,10.52
2022-10-10T16:15:57.989Z,9.80
2022-10-10T16:17:31.217Z,9.18
2022-10-10T16:19:04.957Z,8.00
2022-10-10T16:20:39.719Z,7.32
2022-10-10T16:22:13.032Z,7.05
2022-10-10T16:23:46.561Z,7.28
2022-10-10T16:25:22.671Z,7.10
2022-10-10T16:26:56.374Z,6.05
2022-10-10T16:28:31.132Z,6.32
2022-10-10T16:30:04.748Z,6.35
2022-10-10T16:31:39.290Z,5.45
2022-10-10T16:33:13.068Z,7.65
2022-10-10T16:34:46.361Z,7.13
2022-10-10T16:36:21.943Z,6.40
2022-10-10T16:37:55.953Z,7.18
2022-10-10T16:39:29.459Z,9.90
2022-10-10T16:41:04.216Z,8.85
2022-10-10T16:42:38.353Z,11.98
2022-10-10T16:44:12.906Z,17.05
2022-10-10T16:45:47.020Z,15.68
2022-10-10T16:47:20.481Z,14.73
2022-10-10T16:48:54.314Z,11.68
2022-10-10T16:50:27.710Z,7.07
2022-10-10T16:52:01.083Z,6.57
2022-10-10T16:53:34.670Z,6.82
2022-10-10T16:55:09.103Z,7.20
2022-10-10T16:56:42.992Z,6.85
2022-10-10T16:58:16.423Z,6.40
2022-10-10T16:59:50.976Z,7.63
2022-10-10T17:01:23.584Z,6.72
2022-10-10T17:02:56.818Z,6.47
2022-10-10T17:04:30.334Z,6.53
2022-10-10T17:06:04.972Z,6.50
2022-10-10T17:07:38.185Z,7.07
2022-10-10T17:09:11.651Z,6.40
2022-10-10T17:10:45.486Z,6.60
2022-10-10T17:12:19.582Z,6.80
2022-10-10T17:13:52.966Z,7.70
2022-10-10T17:15:27.809Z,6.15
2022-10-10T17:17:16.692Z,7.30
2022-10-10T17:18:50.103Z,7.82
2022-10-10T17:20:23.363Z,7.60
2022-10-10T17:21:56.545Z,8.85
2022-10-10T17:23:29.796Z,7.30
2022-10-10T17:25:03.454Z,6.68
2022-10-10T17:26:36.659Z,6.20
2022-10-10T17:28:10.022Z,6.97
2022-10-10T17:29:43.578Z,6.38
2022-10-10T17:31:18.943Z,6.78
2022-10-10T17:32:52.159Z,7.88
2022-10-10T17:34:25.344Z,7.35
2022-10-10T17:35:58.939Z,5.80
2022-10-10T17:37:32.551Z,6.70
2022-10-10T17:39:07.613Z,6.10
2022-10-10T17:40:40.332Z,6.47
2022-10-10T17:42:13.796Z,7.53
2022-10-10T17:43:47.617Z,9.68
2022-10-10T17:45:20.934Z,9.85
2022-10-10T17:46:55.521Z,10.32
2022-10-10T17:48:29.119Z,10.93
2022-10-10T17:50:02.805Z,10.57
2022-10-10T17:51:37.358Z,11.68
2022-10-10T17:53:10.560Z,12.13
2022-10-10T17:54:44.073Z,12.93
2022-10-10T17:56:19.509Z,8.90
2022-10-10T17:57:52.716Z,9.30
2022-10-10T17:59:25.909Z,12.77
2022-10-10T18:01:03.112Z,8.90
2022-10-10T18:02:38.138Z,9.32
2022-10-10T18:04:15.265Z,8.80
2022-10-10T18:05:48.439Z,9.13
2022-10-10T18:07:21.830Z,8.93
2022-10-10T18:08:56.141Z,8.43
2022-10-10T18:10:30.336Z,6.95
2022-10-10T18:12:03.638Z,6.30
2022-10-10T18:13:37.847Z,7.07
2022-10-10T18:15:11.630Z,5.80
2022-10-10T18:16:45.183Z,6.95
2022-10-10T18:18:20.019Z,6.72
2022-10-10T18:19:53.238Z,11.07
2022-10-10T18:21:27.060Z,11.23
2022-10-10T18:23:00.618Z,12.18
2022-10-10T18:24:33.831Z,12.57
2022-10-10T18:26:09.399Z,11.35
2022-10-10T18:27:42.848Z,11.93
2022-10-10T18:29:16.046Z,11.95
2022-10-10T18:30:49.288Z,12.63
2022-10-10T18:32:22.520Z,13.05
2022-10-10T18:33:57.530Z,13.13
2022-10-10T18:35:30.641Z,13.32
2022-10-10T18:37:04.823Z,12.68
2022-10-10T18:38:38.438Z,14.40
2022-10-10T18:40:12.573Z,17.02
2022-10-10T18:41:46.538Z,18.30
2022-10-10T18:43:19.855Z,17.35
2022-10-10T18:44:53.286Z,18.92
2022-10-10T18:46:25.852Z,18.35
2022-10-10T18:47:59.136Z,20.33
2022-10-10T18:49:34.007Z,18.33
2022-10-10T18:51:09.157Z,19.60
2022-10-10T18:52:42.540Z,18.40
2022-10-10T18:54:18.461Z,17.95
2022-10-10T18:55:56.478Z,19.27
2022-10-10T18:57:29.967Z,16.08
2022-10-10T18:59:05.998Z,16.48
2022-10-10T19:00:39.281Z,14.25
2022-10-10T19:02:13.118Z,12.23
2022-10-10T19:03:46.483Z,11.77
2022-10-10T19:05:21.486Z,12.70
2022-10-10T19:06:57.584Z,11.32
2022-10-10T19:08:31.935Z,8.70
2022-10-10T19:10:05.764Z,8.77
2022-10-10T19:11:41.365Z,9.90
2022-10-10T19:13:14.955Z,8.48
2022-10-10T19:14:49.660Z,7.63
2022-10-10T19:16:23.389Z,7.88
2022-10-10T19:17:56.897Z,7.80
2022-10-10T19:19:30.240Z,7.72
2022-10-10T19:21:07.042Z,7.35
2022-10-10T19:22:41.074Z,7.97
2022-10-10T19:24:19.725Z,8.13
2022-10-10T19:25:53.144Z,7.57
2022-10-10T19:27:26.545Z,8.48
2022-10-10T19:29:04.229Z,8.20
2022-10-10T19:30:40.143Z,9.02
2022-10-10T19:32:13.406Z,8.45
2022-10-10T19:33:51.921Z,11.32
2022-10-10T19:35:25.278Z,14.35
2022-10-10T19:37:00.201Z,13.23
2022-10-10T19:38:35.366Z,12.70
2022-10-10T19:40:08.973Z,11.60
2022-10-10T19:41:42.420Z,12.05
2022-10-10T19:43:16.371Z,11.63
2022-10-10T19:44:49.583Z,10.32
2022-10-10T19:46:24.345Z,11.75
2022-10-10T19:47:57.976Z,12.32
2022-10-10T19:49:32.186Z,13.00
2022-10-10T19:51:07.072Z,10.68
2022-10-10T19:52:41.653Z,10.30
2022-10-10T19:54:15.033Z,9.85
2022-10-10T19:55:58.689Z,9.52
2022-10-10T19:57:33.415Z,9.75
2022-10-10T19:59:06.853Z,10.27
2022-10-10T20:00:40.180Z,9.93
2022-10-10T20:02:13.543Z,10.48
2022-10-10T20:03:47.719Z,9.55
2022-10-10T20:05:21.682Z,9.23
2022-10-10T20:06:55.098Z,10.45
2022-10-10T20:08:29.098Z,10.73
2022-10-10T20:10:02.316Z,11.23
2022-10-10T20:11:35.448Z,10.48
2022-10-10T20:13:11.625Z,10.82
2022-10-10T20:14:44.811Z,12.40
2022-10-10T20:16:17.963Z,13.88
2022-10-10T20:17:51.179Z,15.38
2022-10-10T20:19:24.517Z,14.52
2022-10-10T20:20:56.829Z,12.95
2022-10-10T20:22:30.129Z,14.75
2022-10-10T20:24:07.282Z,12.15
2022-10-10T20:25:41.495Z,13.25
2022-10-10T20:27:14.839Z,12.63
2022-10-10T20:28:49.273Z,11.75
2022-10-10T20:30:22.600Z,9.38
2022-10-10T20:31:55.873Z,8.13
2022-10-10T20:33:29.259Z,8.57
2022-10-10T20:35:02.944Z,8.27
2022-10-10T20:36:37.168Z,8.20
2022-10-10T20:38:12.034Z,7.82
2022-10-10T20:39:46.695Z,7.97
2022-10-10T20:41:19.854Z,7.78
2022-10-10T20:42:53.077Z,8.43
2022-10-10T20:44:26.403Z,8.02
2022-10-10T20:46:05.231Z,8.38
2022-10-10T20:47:38.758Z,8.02
2022-10-10T20:49:14.657Z,7.95
2022-10-10T20:50:48.119Z,8.63
2022-10-10T20:52:21.546Z,8.40
2022-10-10T20:53:57.238Z,7.63
2022-10-10T20:55:32.490Z,8.13
2022-10-10T20:57:05.651Z,8.02
2022-10-10T20:58:41.430Z,8.18
2022-10-10T21:00:15.735Z,7.65
2022-10-10T21:01:49.068Z,8.45
2022-10-10T21:03:21.464Z,7.13
2022-10-10T21:04:54.644Z,7.35
2022-10-10T21:06:30.502Z,7.85
2022-10-10T21:08:03.669Z,8.52
2022-10-10T21:09:37.251Z,7.85
2022-10-10T21:11:14.165Z,8.13
2022-10-10T21:12:47.325Z,7.43
2022-10-10T21:14:20.511Z,8.70
2022-10-10T21:15:53.010Z,7.90
2022-10-10T21:17:26.314Z,8.27
2022-10-10T21:19:00.042Z,7.82
2022-10-10T21:20:33.245Z,7.55